createdAt,value
2023-02-20T08:47:39.898Z,12.10
2023-02-20T08:50:07.107Z,12.20
2023-02-20T08:52:34.193Z,12.40
2023-02-20T08:55:03.222Z,12.60
2023-02-20T08:57:30.286Z,12.70
2023-02-20T08:59:57.449Z,12.70
2023-02-20T09:02:26.327Z,12.80
2023-02-20T09:04:53.372Z,13.00
2023-02-20T09:07:20.533Z,13.00
2023-02-20T09:09:47.930Z,13.00
2023-02-20T09:12:15.073Z,13.10
2023-02-20T09:18:34.728Z,13.10
2023-02-20T09:21:02.797Z,13.20
2023-02-20T09:23:29.842Z,13.20
2023-02-20T09:25:56.835Z,13.20
2023-02-20T09:28:24.040Z,13.40
2023-02-20T09:30:54.882Z,13.40
2023-02-20T09:33:22.026Z,13.40
2023-02-20T09:35:52.147Z,13.50
2023-02-20T09:38:19.394Z,13.60
2023-02-20T09:40:50.688Z,13.60
2023-02-20T09:43:31.152Z,13.80
2023-02-20T09:46:03.463Z,13.80
2023-02-20T09:49:08.818Z,13.80
2023-02-20T09:51:39.594Z,14.00
2023-02-20T09:54:14.788Z,14.00
2023-02-20T09:56:46.392Z,14.20
2023-02-20T09:59:22.652Z,14.30
2023-02-20T10:02:03.031Z,14.20
2023-02-20T10:04:52.309Z,14.40
2023-02-20T10:07:28.272Z,14.50
2023-02-20T10:09:56.254Z,14.60
2023-02-20T10:12:45.317Z,14.60
2023-02-20T10:15:15.436Z,14.60
2023-02-20T10:17:51.545Z,14.60
2023-02-20T10:20:30.466Z,14.40
2023-02-20T10:23:05.464Z,14.60
2023-02-20T10:25:41.205Z,14.90
2023-02-20T10:28:10.249Z,14.90
2023-02-20T10:30:43.327Z,15.00
2023-02-20T10:33:10.226Z,14.90
2023-02-20T10:35:50.394Z,14.90
2023-02-20T10:38:21.887Z,14.80
2023-02-20T10:40:57.789Z,14.70
2023-02-20T10:43:40.197Z,14.80
2023-02-20T10:46:16.599Z,14.70
2023-02-20T10:48:45.534Z,14.70
2023-02-20T10:51:15.519Z,14.70
2023-02-20T10:54:04.189Z,14.70
2023-02-20T10:56:40.071Z,14.90
2023-02-20T10:59:37.123Z,15.00
2023-02-20T11:02:10.588Z,15.10
2023-02-20T11:04:42.730Z,15.00
2023-02-20T11:07:15.952Z,14.90
2023-02-20T11:09:43.535Z,15.00
2023-02-20T11:12:27.681Z,15.10
2023-02-20T11:14:57.543Z,15.30
2023-02-20T11:17:27.307Z,15.50
2023-02-20T11:19:55.173Z,15.50
2023-02-20T11:22:45.202Z,15.60
2023-02-20T11:25:36.619Z,15.60
2023-02-20T11:28:27.526Z,15.50
2023-02-20T11:31:06.875Z,15.60
2023-02-20T11:33:43.022Z,15.40
2023-02-20T11:36:19.135Z,15.50
2023-02-20T11:38:48.547Z,15.50
2023-02-20T11:41:29.357Z,15.40
2023-02-20T11:44:12.534Z,15.20
2023-02-20T11:46:40.074Z,15.20
2023-02-20T11:49:26.907Z,15.10
2023-02-20T11:52:19.649Z,15.10
2023-02-20T11:54:47.875Z,15.30
2023-02-20T11:57:25.712Z,15.30
2023-02-20T12:00:20.210Z,15.20
2023-02-20T12:02:53.637Z,15.10
2023-02-20T12:05:22.107Z,15.20
2023-02-20T12:07:52.058Z,15.20
2023-02-20T12:10:45.349Z,15.10
2023-02-20T12:13:17.480Z,15.20
2023-02-20T12:15:52.149Z,15.20
2023-02-20T12:18:36.461Z,15.20
2023-02-20T12:21:14.923Z,15.20
2023-02-20T12:23:50.569Z,15.20
2023-02-20T12:26:38.526Z,15.30
2023-02-20T12:29:20.144Z,15.40
2023-02-20T12:32:03.168Z,15.30
2023-02-20T12:34:53.151Z,15.40
2023-02-20T12:37:53.833Z,15.30
2023-02-20T12:41:22.173Z,15.40
2023-02-20T12:44:16.857Z,15.40
2023-02-20T12:47:01.880Z,15.40
2023-02-20T12:49:46.176Z,15.40
2023-02-20T12:53:00.532Z,15.50
2023-02-20T12:55:57.585Z,15.40
2023-02-20T12:58:45.518Z,15.40
2023-02-20T13:01:15.290Z,15.40
2023-02-20T13:03:59.558Z,15.40
2023-02-20T13:06:50.643Z,15.40
2023-02-20T13:09:25.727Z,15.40
2023-02-20T13:11:58.003Z,15.50
2023-02-20T13:14:27.960Z,15.40
2023-02-20T13:17:14.178Z,15.30
2023-02-20T13:19:46.065Z,15.40
2023-02-20T13:22:13.108Z,15.40
2023-02-20T13:24:41.898Z,15.50
2023-02-20T13:27:11.518Z,15.60
2023-02-20T13:29:57.450Z,15.50
2023-02-20T13:32:30.622Z,15.50
2023-02-20T13:35:35.112Z,15.60
2023-02-20T13:38:12.964Z,15.60
2023-02-20T13:41:01.153Z,15.60
2023-02-20T13:43:36.042Z,15.60
2023-02-20T13:46:17.618Z,15.60
2023-02-20T13:48:50.809Z,15.60
2023-02-20T13:51:25.462Z,15.70
2023-02-20T13:54:04.104Z,15.60
2023-02-20T13:56:47.591Z,15.60
2023-02-20T13:59:20.791Z,15.50
2023-02-20T14:02:14.035Z,15.50
2023-02-20T14:04:56.203Z,15.50
2023-02-20T14:07:37.477Z,15.60
2023-02-20T14:10:10.011Z,15.60
2023-02-20T14:12:38.320Z,15.60
2023-02-20T14:15:07.191Z,15.50
2023-02-20T14:17:39.608Z,15.50
2023-02-20T14:20:24.809Z,15.60
2023-02-20T14:23:27.332Z,15.50
2023-02-20T14:26:01.019Z,15.50
2023-02-20T14:28:30.795Z,15.40
2023-02-20T14:31:36.364Z,15.40
2023-02-20T14:34:15.424Z,15.20
2023-02-20T14:37:07.148Z,15.10
2023-02-20T14:40:03.077Z,15.10
2023-02-20T14:42:30.837Z,15.10
2023-02-20T14:45:09.352Z,15.10
2023-02-20T14:47:52.998Z,15.10
2023-02-20T14:50:26.176Z,15.10
2023-02-20T14:53:15.879Z,15.10
2023-02-20T14:55:43.929Z,15.10
2023-02-20T14:58:17.217Z,15.10
2023-02-20T15:00:45.848Z,15.00
2023-02-20T15:03:30.571Z,14.90
2023-02-20T15:06:04.451Z,14.80
2023-02-20T15:08:36.440Z,14.70
2023-02-20T15:11:12.358Z,14.70
2023-02-20T15:13:43.171Z,14.60
2023-02-20T15:16:26.574Z,14.60
2023-02-20T15:18:55.223Z,14.50
2023-02-20T15:21:41.591Z,14.50
2023-02-20T15:24:34.899Z,14.40
2023-02-20T15:27:09.112Z,14.30
2023-02-20T15:29:36.363Z,14.30
2023-02-20T15:32:17.003Z,14.20
2023-02-20T15:34:44.518Z,14.20
2023-02-20T15:37:38.138Z,14.10
2023-02-20T15:40:20.872Z,14.00
2023-02-20T15:42:48.479Z,14.00
2023-02-20T15:45:15.681Z,13.90
2023-02-20T15:47:42.988Z,13.90
2023-02-20T15:50:10.132Z,13.90
2023-02-20T15:52:37.401Z,13.90
2023-02-20T15:55:05.206Z,13.80
2023-02-20T15:57:32.158Z,13.80
2023-02-20T15:59:59.289Z,13.70
2023-02-20T16:02:26.388Z,13.60
2023-02-20T16:04:53.539Z,13.60
2023-02-20T16:07:21.772Z,13.50
2023-02-20T16:09:49.212Z,13.50
2023-02-20T16:12:28.145Z,13.50
2023-02-20T16:14:55.463Z,13.40
2023-02-20T16:17:31.254Z,13.30
2023-02-20T16:19:58.207Z,13.20
2023-02-20T16:22:25.402Z,13.20
2023-02-20T16:24:52.422Z,13.20
2023-02-20T16:27:26.518Z,13.10
2023-02-20T16:29:55.350Z,13.10
2023-02-20T16:32:26.600Z,13.00
2023-02-20T16:34:55.580Z,13.00
2023-02-20T16:37:23.134Z,12.90
2023-02-20T16:39:50.237Z,12.90
2023-02-20T16:42:30.612Z,12.90
2023-02-20T16:44:59.034Z,12.90
2023-02-20T16:47:29.198Z,12.80
2023-02-20T16:50:04.070Z,12.70
2023-02-20T16:52:37.884Z,12.70
2023-02-20T16:55:17.066Z,12.50
2023-02-20T16:57:44.054Z,12.20
2023-02-20T17:00:19.190Z,11.90
2023-02-20T17:02:47.057Z,11.80
2023-02-20T17:05:15.124Z,11.80
2023-02-20T17:11:35.442Z,11.90
2023-02-20T17:14:04.159Z,11.90
2023-02-20T17:16:32.138Z,11.80
2023-02-20T17:18:59.252Z,11.70
2023-02-20T17:21:26.342Z,11.60
2023-02-20T17:23:53.335Z,11.60
2023-02-20T17:26:20.382Z,11.60
2023-02-20T17:28:47.685Z,11.60
2023-02-20T17:31:14.883Z,11.70
2023-02-20T17:33:42.625Z,11.70
2023-02-20T17:36:09.860Z,11.60
2023-02-20T17:38:36.950Z,11.60
2023-02-20T17:41:04.351Z,11.60
2023-02-20T17:43:31.627Z,11.60
2023-02-20T17:45:58.707Z,11.50
2023-02-20T17:48:25.803Z,11.50
2023-02-20T17:50:52.746Z,11.40
2023-02-20T17:53:19.795Z,11.50
2023-02-20T17:55:46.852Z,11.50
2023-02-20T17:58:14.187Z,11.50
2023-02-20T18:00:41.334Z,11.50
2023-02-20T18:03:08.388Z,11.50
2023-02-20T18:05:35.351Z,11.40
2023-02-20T18:08:04.113Z,11.40
2023-02-20T18:10:31.379Z,11.30
2023-02-20T18:13:04.621Z,11.20
2023-02-20T18:15:36.677Z,11.00
2023-02-20T18:18:05.204Z,10.90
2023-02-20T18:20:32.305Z,10.90
2023-02-20T18:22:59.663Z,10.90
2023-02-20T18:25:39.505Z,10.90
2023-02-20T18:28:08.248Z,10.90
2023-02-20T18:30:35.233Z,10.90
2023-02-20T18:33:04.286Z,10.90
2023-02-20T18:35:31.323Z,10.90
2023-02-20T18:37:58.927Z,10.90
2023-02-20T18:40:25.927Z,10.90
2023-02-20T18:42:53.076Z,10.90
2023-02-20T18:45:23.234Z,10.90
2023-02-20T18:47:52.552Z,10.80
2023-02-20T18:50:20.834Z,10.70
2023-02-20T18:52:49.052Z,10.60
2023-02-20T18:55:20.516Z,10.60
2023-02-20T18:57:48.550Z,10.60
2023-02-20T19:00:18.657Z,10.60
2023-02-20T19:02:46.400Z,10.60
2023-02-20T19:05:13.753Z,10.60
2023-02-20T19:07:42.709Z,10.60
2023-02-20T19:10:11.818Z,10.40
2023-02-20T19:12:39.353Z,10.20
2023-02-20T19:15:08.340Z,10.20
2023-02-20T19:17:37.983Z,10.10
2023-02-20T19:20:08.370Z,10.10
2023-02-20T19:22:35.631Z,10.00
2023-02-20T19:25:03.893Z,10.00
2023-02-20T19:27:30.894Z,9.90
2023-02-20T19:29:58.199Z,9.90
2023-02-20T19:32:25.513Z,9.80
2023-02-20T19:34:53.427Z,9.80
2023-02-20T19:37:22.408Z,9.80
2023-02-20T19:39:49.509Z,9.80
2023-02-20T19:42:17.427Z,9.80
2023-02-20T19:44:44.369Z,9.80
2023-02-20T19:54:29.599Z,9.90
2023-02-20T19:57:04.945Z,9.80
2023-02-20T19:59:32.075Z,9.80
2023-02-20T20:02:00.062Z,9.90
2023-02-20T20:04:30.829Z,9.80
2023-02-20T20:06:58.798Z,9.80
2023-02-20T20:09:36.217Z,9.80
2023-02-20T20:12:05.646Z,9.80
2023-02-20T20:14:32.647Z,9.80
2023-02-20T20:16:59.700Z,9.80
2023-02-20T20:19:26.983Z,9.80
2023-02-20T20:21:54.598Z,9.80
2023-02-20T20:24:21.535Z,9.80
2023-02-20T20:26:48.584Z,9.80
2023-02-20T20:29:15.562Z,9.80
2023-02-20T20:31:42.699Z,9.70
2023-02-20T20:34:10.242Z,9.70
2023-02-20T20:36:37.788Z,9.70
2023-02-20T20:39:05.460Z,9.60
2023-02-20T20:41:43.924Z,9.60
2023-02-20T20:44:12.503Z,9.60
2023-02-20T20:46:40.113Z,9.60
2023-02-20T20:49:07.470Z,9.70
2023-02-20T20:51:34.517Z,9.70
2023-02-20T20:54:07.414Z,9.70
2023-02-20T20:56:34.495Z,9.70
2023-02-20T20:59:01.438Z,9.70
2023-02-20T21:01:28.456Z,9.60
2023-02-20T21:03:55.479Z,9.60
2023-02-20T21:06:22.562Z,9.60
2023-02-20T21:08:49.626Z,9.60
2023-02-20T21:11:17.000Z,9.60
2023-02-20T21:13:47.607Z,9.60
2023-02-20T21:16:18.914Z,9.60
2023-02-20T21:18:46.974Z,9.50
2023-02-20T21:21:14.322Z,9.50
2023-02-20T21:23:45.492Z,9.40
2023-02-20T21:26:13.387Z,9.20
2023-02-20T21:28:40.753Z,9.00
2023-02-20T21:31:07.939Z,9.00
2023-02-20T21:33:35.381Z,8.80
2023-02-20T21:36:05.008Z,8.90
2023-02-20T21:38:36.152Z,8.80
2023-02-20T21:41:06.225Z,8.60
2023-02-20T21:43:51.999Z,8.60
2023-02-20T21:46:19.929Z,8.40
2023-02-20T21:48:47.013Z,8.40
2023-02-20T21:51:14.426Z,8.40
2023-02-20T21:53:41.527Z,8.40
2023-02-20T21:56:08.599Z,8.50
2023-02-20T21:58:54.204Z,8.40
2023-02-20T22:01:21.111Z,8.40
2023-02-20T22:03:48.091Z,8.60
2023-02-20T22:06:15.133Z,8.60
2023-02-20T22:09:00.662Z,8.60
2023-02-20T22:11:46.448Z,8.60
2023-02-20T22:14:32.029Z,8.60
2023-02-20T22:17:17.766Z,8.70
2023-02-20T22:20:04.372Z,8.70
2023-02-20T22:22:50.164Z,8.80
2023-02-20T22:25:35.660Z,8.80
2023-02-20T22:28:21.682Z,8.80
2023-02-20T22:31:07.328Z,8.90
2023-02-20T22:33:53.103Z,8.90
2023-02-20T22:36:38.840Z,8.90
2023-02-20T22:39:24.888Z,8.90
2023-02-20T22:42:10.510Z,9.00
2023-02-20T22:44:56.242Z,8.90
2023-02-20T22:47:41.878Z,8.90
2023-02-20T22:50:27.715Z,8.80
2023-02-20T22:53:13.095Z,8.70
2023-02-20T22:55:58.723Z,8.70
2023-02-20T22:58:44.360Z,8.70
2023-02-20T23:01:30.091Z,8.70
2023-02-20T23:04:15.721Z,8.70
2023-02-20T23:07:05.501Z,8.60
2023-02-20T23:09:51.339Z,8.60
2023-02-20T23:12:36.868Z,8.70
2023-02-20T23:15:22.656Z,8.70
2023-02-20T23:18:08.290Z,8.60
2023-02-20T23:20:54.046Z,8.60
2023-02-20T23:23:39.760Z,8.50
2023-02-20T23:26:26.004Z,8.50
2023-02-20T23:29:11.729Z,8.40
2023-02-20T23:32:04.378Z,8.40
2023-02-20T23:34:50.190Z,8.20
2023-02-20T23:37:36.111Z,8.10
2023-02-20T23:40:34.614Z,8.10
2023-02-20T23:43:22.982Z,8.00
2023-02-20T23:46:08.773Z,8.10
2023-02-20T23:48:54.093Z,8.10
2023-02-20T23:51:39.826Z,8.10
2023-02-20T23:54:25.520Z,8.20
2023-02-20T23:57:11.349Z,8.30
2023-02-20T23:59:56.628Z,8.30
